createdAt,value
2023-03-19T00:01:15.050Z,16.82
2023-03-19T00:03:45.829Z,16.81
2023-03-19T00:06:14.488Z,16.79
2023-03-19T00:08:43.211Z,16.80
2023-03-19T00:11:12.792Z,16.80
2023-03-19T00:13:41.575Z,16.78
2023-03-19T00:16:09.982Z,16.78
2023-03-19T00:18:38.781Z,16.79
2023-03-19T00:21:07.361Z,16.77
2023-03-19T00:23:36.983Z,16.76
2023-03-19T00:26:05.560Z,16.77
2023-03-19T00:28:34.346Z,16.75
2023-03-19T00:31:14.482Z,16.74
2023-03-19T00:33:43.451Z,16.75
2023-03-19T00:36:12.156Z,16.75
2023-03-19T00:38:42.312Z,16.75
2023-03-19T00:41:11.035Z,16.74
2023-03-19T00:43:39.847Z,16.74
2023-03-19T00:46:08.104Z,16.74
2023-03-19T00:48:36.795Z,16.73
2023-03-19T00:51:09.770Z,16.71
2023-03-19T00:53:43.534Z,16.72
2023-03-19T00:56:13.753Z,16.71
2023-03-19T00:58:42.502Z,16.71
2023-03-19T01:01:12.992Z,16.70
2023-03-19T01:03:42.223Z,16.70
2023-03-19T01:06:10.721Z,16.69
2023-03-19T01:08:39.341Z,16.70
2023-03-19T01:11:14.547Z,16.69
2023-03-19T01:13:43.441Z,16.68
2023-03-19T01:16:11.818Z,16.69
2023-03-19T01:18:40.886Z,16.69
2023-03-19T01:21:09.285Z,16.69
2023-03-19T01:23:44.448Z,16.67
2023-03-19T01:26:13.268Z,16.69
2023-03-19T01:28:43.619Z,16.67
2023-03-19T01:31:12.860Z,16.65
2023-03-19T01:33:42.910Z,16.65
2023-03-19T01:36:17.368Z,16.66
2023-03-19T01:38:58.211Z,16.64
2023-03-19T01:41:26.728Z,16.63
2023-03-19T01:43:59.551Z,16.64
2023-03-19T01:46:41.480Z,16.62
2023-03-19T01:49:36.737Z,16.62
2023-03-19T01:52:19.441Z,16.62
2023-03-19T01:55:14.218Z,16.60
2023-03-19T01:57:51.397Z,16.62
2023-03-19T02:00:38.457Z,16.61
2023-03-19T02:03:07.410Z,16.61
2023-03-19T02:05:36.856Z,16.60
2023-03-19T02:08:11.617Z,16.59
2023-03-19T02:10:41.677Z,16.61
2023-03-19T02:13:10.087Z,16.59
2023-03-19T02:15:38.944Z,16.59
2023-03-19T02:18:08.479Z,16.61
2023-03-19T02:21:06.296Z,16.59
2023-03-19T02:23:56.343Z,16.58
2023-03-19T02:26:43.605Z,16.59
2023-03-19T02:29:12.164Z,16.59
2023-03-19T02:31:41.664Z,16.59
2023-03-19T02:34:10.161Z,16.59
2023-03-19T02:36:49.434Z,16.58
2023-03-19T02:39:26.425Z,16.57
2023-03-19T02:41:55.188Z,16.57
2023-03-19T02:44:26.577Z,16.55
2023-03-19T02:46:55.440Z,16.57
2023-03-19T02:49:25.104Z,16.55
2023-03-19T02:51:53.852Z,16.55
2023-03-19T02:54:22.184Z,16.55
2023-03-19T02:56:52.779Z,16.56
2023-03-19T02:59:21.694Z,16.55
2023-03-19T03:01:51.135Z,16.55
2023-03-19T03:04:19.580Z,16.54
2023-03-19T03:06:48.440Z,16.53
2023-03-19T03:09:17.337Z,16.53
2023-03-19T03:11:46.290Z,16.52
2023-03-19T03:14:14.660Z,16.49
2023-03-19T03:16:43.489Z,16.52
2023-03-19T03:19:12.349Z,16.49
2023-03-19T03:21:41.463Z,16.50
2023-03-19T03:24:10.020Z,16.51
2023-03-19T03:26:39.300Z,16.50
2023-03-19T03:29:07.869Z,16.50
2023-03-19T03:31:36.802Z,16.49
2023-03-19T03:34:05.232Z,16.49
2023-03-19T03:36:34.065Z,16.50
2023-03-19T03:39:02.472Z,16.48
2023-03-19T03:41:31.741Z,16.46
2023-03-19T03:44:00.152Z,16.47
2023-03-19T03:46:29.150Z,16.47
2023-03-19T03:48:58.212Z,16.46
2023-03-19T03:51:26.991Z,16.45
2023-03-19T03:53:55.393Z,16.46
2023-03-19T03:56:24.054Z,16.45
2023-03-19T03:58:52.632Z,16.45
2023-03-19T04:01:21.622Z,16.45
2023-03-19T04:03:55.261Z,16.44
2023-03-19T04:06:24.610Z,16.42
2023-03-19T04:09:17.402Z,16.45
2023-03-19T04:11:46.273Z,16.43
2023-03-19T04:14:15.692Z,16.43
2023-03-19T04:16:44.612Z,16.42
2023-03-19T04:19:14.549Z,16.43
2023-03-19T04:21:43.215Z,16.41
2023-03-19T04:24:11.786Z,16.41
2023-03-19T04:26:40.963Z,16.41
2023-03-19T04:29:09.680Z,16.41
2023-03-19T04:31:39.449Z,16.36
2023-03-19T04:34:08.172Z,16.39
2023-03-19T04:36:36.949Z,16.38
2023-03-19T04:39:06.072Z,16.38
2023-03-19T04:41:35.548Z,16.37
2023-03-19T04:44:22.174Z,16.36
2023-03-19T04:46:50.998Z,16.36
2023-03-19T04:49:21.758Z,16.36
2023-03-19T04:51:52.738Z,16.34
2023-03-19T04:54:21.271Z,16.31
2023-03-19T04:56:50.537Z,16.33
2023-03-19T04:59:23.089Z,16.32
2023-03-19T05:01:53.028Z,16.31
2023-03-19T05:04:25.207Z,16.31
2023-03-19T05:06:58.498Z,16.31
2023-03-19T05:09:26.809Z,16.27
2023-03-19T05:11:56.767Z,16.29
2023-03-19T05:14:25.599Z,16.30
2023-03-19T05:17:11.378Z,16.31
2023-03-19T05:20:00.038Z,16.28
2023-03-19T05:22:29.097Z,16.28
2023-03-19T05:24:58.830Z,16.30
2023-03-19T05:27:29.167Z,16.29
2023-03-19T05:30:07.009Z,16.27
2023-03-19T05:33:00.147Z,16.28
2023-03-19T05:35:41.423Z,16.27
2023-03-19T05:38:20.952Z,16.28
2023-03-19T05:40:56.377Z,16.28
2023-03-19T05:43:37.824Z,16.28
2023-03-19T05:46:10.205Z,16.26
2023-03-19T05:48:39.407Z,16.26
2023-03-19T05:51:09.495Z,16.26
2023-03-19T05:53:42.657Z,16.28
2023-03-19T05:56:46.180Z,16.27
2023-03-19T05:59:41.005Z,16.26
2023-03-19T06:02:28.024Z,16.27
2023-03-19T06:05:12.603Z,16.26
2023-03-19T06:07:41.104Z,16.28
2023-03-19T06:10:16.652Z,16.27
2023-03-19T06:12:44.980Z,16.25
2023-03-19T06:15:22.944Z,16.27
2023-03-19T06:18:08.844Z,16.27
2023-03-19T06:20:37.828Z,16.28
2023-03-19T06:23:06.717Z,16.27
2023-03-19T06:25:36.125Z,16.24
2023-03-19T06:28:05.932Z,16.25
2023-03-19T06:30:40.264Z,16.25
2023-03-19T06:33:32.469Z,16.26
2023-03-19T06:36:02.058Z,16.26
2023-03-19T06:38:33.758Z,16.26
2023-03-19T06:41:02.852Z,16.25
2023-03-19T06:43:32.419Z,16.24
2023-03-19T06:46:01.684Z,16.26
2023-03-19T06:48:30.356Z,16.26
2023-03-19T06:50:59.402Z,16.27
2023-03-19T06:53:28.334Z,16.27
2023-03-19T06:55:57.259Z,16.27
2023-03-19T06:58:25.941Z,16.28
2023-03-19T07:00:54.655Z,16.28
2023-03-19T07:03:23.379Z,16.28
2023-03-19T07:05:52.359Z,16.30
2023-03-19T07:08:20.820Z,16.31
2023-03-19T07:10:49.717Z,16.31
2023-03-19T07:13:18.108Z,16.31
2023-03-19T07:15:47.558Z,16.31
2023-03-19T07:23:39.539Z,16.30
2023-03-19T07:26:08.490Z,16.31
2023-03-19T07:28:36.940Z,16.33
2023-03-19T07:31:07.312Z,16.33
2023-03-19T07:33:36.323Z,16.36
2023-03-19T07:36:06.170Z,16.37
2023-03-19T07:38:34.468Z,16.34
2023-03-19T07:41:04.093Z,16.34
2023-03-19T07:43:32.469Z,16.29
2023-03-19T07:46:01.447Z,15.95
2023-03-19T07:48:30.126Z,15.65
2023-03-19T07:50:58.941Z,15.14
2023-03-19T07:53:27.381Z,15.10
2023-03-19T07:55:56.616Z,15.02
2023-03-19T07:58:25.211Z,14.99
2023-03-19T08:00:54.666Z,14.79
2023-03-19T08:03:23.096Z,14.94
2023-03-19T08:05:52.661Z,14.92
2023-03-19T08:08:21.207Z,14.83
2023-03-19T08:10:51.042Z,14.78
2023-03-19T08:13:19.676Z,14.84
2023-03-19T08:15:50.375Z,14.85
2023-03-19T08:18:19.049Z,14.92
2023-03-19T08:20:47.960Z,14.99
2023-03-19T08:23:17.663Z,14.85
2023-03-19T08:25:46.417Z,14.78
2023-03-19T08:28:14.884Z,14.88
2023-03-19T08:30:43.595Z,14.95
2023-03-19T08:33:12.226Z,15.11
2023-03-19T08:35:41.652Z,15.34
2023-03-19T08:38:10.661Z,15.54
2023-03-19T08:40:39.393Z,15.65
2023-03-19T08:43:07.995Z,15.69
2023-03-19T08:45:37.415Z,15.75
2023-03-19T08:48:05.917Z,15.79
2023-03-19T08:50:35.100Z,15.84
2023-03-19T08:53:03.807Z,15.85
2023-03-19T08:55:32.655Z,15.89
2023-03-19T08:58:01.279Z,15.63
2023-03-19T09:00:30.057Z,15.55
2023-03-19T09:02:58.651Z,15.81
2023-03-19T09:05:29.713Z,15.87
2023-03-19T09:07:58.406Z,15.97
2023-03-19T09:10:27.212Z,16.03
2023-03-19T09:12:55.872Z,16.05
2023-03-19T09:15:25.001Z,16.09
2023-03-19T09:17:53.425Z,16.14
2023-03-19T09:20:22.165Z,16.14
2023-03-19T09:22:50.753Z,16.17
2023-03-19T09:25:19.656Z,16.21
2023-03-19T09:27:49.450Z,16.24
2023-03-19T09:30:18.208Z,16.21
2023-03-19T09:32:46.701Z,16.22
2023-03-19T09:35:16.121Z,16.23
2023-03-19T09:37:44.613Z,16.24
2023-03-19T09:40:42.130Z,16.25
2023-03-19T09:43:49.582Z,16.24
2023-03-19T09:46:22.886Z,16.25
2023-03-19T09:49:41.567Z,16.23
2023-03-19T09:53:17.403Z,16.24
2023-03-19T09:55:52.646Z,16.23
2023-03-19T09:58:47.942Z,16.27
2023-03-19T10:01:37.417Z,16.26
2023-03-19T10:04:28.085Z,16.29
2023-03-19T10:07:12.861Z,16.29
2023-03-19T10:10:15.244Z,16.31
2023-03-19T10:12:48.998Z,16.34
2023-03-19T10:15:33.189Z,16.35
2023-03-19T10:18:36.957Z,16.40
2023-03-19T10:21:16.409Z,16.41
2023-03-19T10:24:00.655Z,16.45
2023-03-19T10:26:34.705Z,16.44
2023-03-19T10:29:18.991Z,16.47
2023-03-19T10:32:19.166Z,16.48
2023-03-19T10:34:54.089Z,16.49
2023-03-19T10:37:28.691Z,16.49
2023-03-19T10:39:59.279Z,16.50
2023-03-19T10:43:11.350Z,16.54
2023-03-19T10:45:39.887Z,16.57
2023-03-19T10:48:13.114Z,16.57
2023-03-19T10:50:54.070Z,16.60
2023-03-19T10:53:35.339Z,16.62
2023-03-19T10:56:23.343Z,16.67
2023-03-19T10:58:59.027Z,16.65
2023-03-19T11:01:39.991Z,16.69
2023-03-19T11:04:22.801Z,16.71
2023-03-19T11:07:02.618Z,16.71
2023-03-19T11:09:47.048Z,16.72
2023-03-19T11:12:35.112Z,16.73
2023-03-19T11:15:06.924Z,16.74
2023-03-19T11:18:20.034Z,16.74
2023-03-19T11:21:30.622Z,16.74
2023-03-19T11:24:03.443Z,16.76
2023-03-19T11:26:32.721Z,16.80
2023-03-19T11:29:05.195Z,16.76
2023-03-19T11:31:54.722Z,16.78
2023-03-19T11:34:48.855Z,16.73
2023-03-19T11:37:44.753Z,16.69
2023-03-19T11:40:31.923Z,16.56
2023-03-19T11:43:17.894Z,16.56
2023-03-19T11:46:48.349Z,16.66
2023-03-19T11:49:51.050Z,16.75
2023-03-19T11:52:33.727Z,16.78
2023-03-19T11:55:42.619Z,16.75
2023-03-19T11:58:55.638Z,16.71
2023-03-19T12:02:23.756Z,16.70
2023-03-19T12:05:12.615Z,16.70
2023-03-19T12:08:33.496Z,16.67
2023-03-19T12:11:36.267Z,16.68
2023-03-19T12:14:16.858Z,16.53
2023-03-19T12:17:13.567Z,16.48
2023-03-19T12:20:04.535Z,16.43
2023-03-19T12:23:26.769Z,16.30
2023-03-19T12:26:09.055Z,16.23
2023-03-19T12:29:10.196Z,16.26
2023-03-19T12:32:05.490Z,16.33
2023-03-19T12:35:17.106Z,16.17
2023-03-19T12:38:39.222Z,16.22
2023-03-19T12:41:15.266Z,16.19
2023-03-19T12:44:02.036Z,16.09
2023-03-19T12:46:59.261Z,15.92
2023-03-19T12:49:36.484Z,15.83
2023-03-19T12:52:24.468Z,15.73
2023-03-19T12:55:13.464Z,15.81
2023-03-19T12:58:12.325Z,15.97
2023-03-19T13:01:12.656Z,16.15
2023-03-19T13:04:07.364Z,16.31
2023-03-19T13:07:02.283Z,16.44
2023-03-19T13:09:51.245Z,16.36
2023-03-19T13:12:32.362Z,16.25
2023-03-19T13:15:39.219Z,16.42
2023-03-19T13:18:33.590Z,16.50
2023-03-19T13:21:11.641Z,16.57
2023-03-19T13:23:40.393Z,16.57
2023-03-19T13:26:12.894Z,16.51
2023-03-19T13:29:27.726Z,16.44
2023-03-19T13:32:43.866Z,16.45
2023-03-19T13:35:46.826Z,16.57
2023-03-19T13:38:24.515Z,16.64
2023-03-19T13:40:57.654Z,16.68
2023-03-19T13:43:29.570Z,16.63
2023-03-19T13:46:12.392Z,16.55
2023-03-19T13:48:50.760Z,16.55
2023-03-19T13:51:19.235Z,16.50
2023-03-19T13:54:12.991Z,16.44
2023-03-19T13:57:18.777Z,16.47
2023-03-19T13:59:50.638Z,16.47
2023-03-19T14:02:22.160Z,16.49
2023-03-19T14:05:14.409Z,16.48
2023-03-19T14:07:44.078Z,16.46
2023-03-19T14:10:29.890Z,16.45
2023-03-19T14:13:08.643Z,16.51
2023-03-19T14:15:41.084Z,16.50
2023-03-19T14:18:14.538Z,16.45
2023-03-19T14:20:59.357Z,16.43
2023-03-19T14:23:39.633Z,16.39
2023-03-19T14:26:18.130Z,16.33
2023-03-19T14:28:50.358Z,16.06
2023-03-19T14:31:50.516Z,16.05
2023-03-19T14:34:42.048Z,16.15
2023-03-19T14:37:28.633Z,16.28
2023-03-19T14:40:14.914Z,16.34
2023-03-19T14:43:18.118Z,16.35
2023-03-19T14:46:05.310Z,16.38
2023-03-19T14:48:55.523Z,16.39
2023-03-19T14:51:58.768Z,16.36
2023-03-19T14:55:09.179Z,16.36
2023-03-19T14:57:37.846Z,16.35
2023-03-19T15:00:13.162Z,16.35
2023-03-19T15:02:50.241Z,16.35
2023-03-19T15:05:30.830Z,16.33
2023-03-19T15:08:08.059Z,16.36
2023-03-19T15:11:01.092Z,16.36
2023-03-19T15:14:39.105Z,16.39
2023-03-19T15:17:30.108Z,16.35
2023-03-19T15:20:02.319Z,16.35
2023-03-19T15:22:34.981Z,16.35
2023-03-19T15:25:16.494Z,16.36
2023-03-19T15:27:45.971Z,16.34
2023-03-19T15:30:24.826Z,16.33
2023-03-19T15:33:09.109Z,16.30
2023-03-19T15:35:41.244Z,16.28
2023-03-19T15:38:11.547Z,16.27
2023-03-19T15:40:40.999Z,16.27
2023-03-19T15:43:12.005Z,16.27
2023-03-19T15:45:42.148Z,16.27
2023-03-19T15:48:35.111Z,16.24
2023-03-19T15:51:04.249Z,16.24
2023-03-19T15:53:34.314Z,16.24
2023-03-19T15:56:03.791Z,16.23
2023-03-19T15:58:38.839Z,16.22
2023-03-19T16:01:08.615Z,16.21
2023-03-19T16:04:09.107Z,16.21
2023-03-19T16:06:42.259Z,16.19
2023-03-19T16:09:14.228Z,16.21
2023-03-19T16:11:44.352Z,16.20
2023-03-19T16:14:23.229Z,16.20
2023-03-19T16:16:52.616Z,16.29
2023-03-19T16:19:32.784Z,16.30
2023-03-19T16:22:01.747Z,16.31
2023-03-19T16:24:39.209Z,16.31
2023-03-19T16:27:12.787Z,16.30
2023-03-19T16:30:08.901Z,16.29
2023-03-19T16:32:37.573Z,16.30
2023-03-19T16:35:15.651Z,16.31
2023-03-19T16:37:45.058Z,16.30
2023-03-19T16:40:14.294Z,16.32
2023-03-19T16:42:51.218Z,16.33
2023-03-19T16:45:31.356Z,16.32
2023-03-19T16:48:03.700Z,16.31
2023-03-19T16:50:43.701Z,16.32
2023-03-19T16:53:23.005Z,16.32
2023-03-19T16:55:53.326Z,16.32
2023-03-19T16:58:42.899Z,16.33
2023-03-19T17:01:25.532Z,16.33
2023-03-19T17:03:54.309Z,16.31
2023-03-19T17:06:23.249Z,16.32
2023-03-19T17:08:51.798Z,16.33
2023-03-19T17:11:29.990Z,16.33
2023-03-19T17:13:59.244Z,16.34
2023-03-19T17:16:28.516Z,16.32
2023-03-19T17:18:57.248Z,16.33
2023-03-19T17:21:36.128Z,16.34
2023-03-19T17:24:29.635Z,16.33
2023-03-19T17:27:00.885Z,16.33
2023-03-19T17:29:30.653Z,16.34
2023-03-19T17:32:04.372Z,16.33
2023-03-19T17:34:33.333Z,16.34
2023-03-19T17:37:04.151Z,16.32
2023-03-19T17:39:33.065Z,16.34
2023-03-19T17:42:01.845Z,16.31
2023-03-19T17:44:30.257Z,16.30
2023-03-19T17:46:59.095Z,16.32
2023-03-19T17:49:29.451Z,16.30
2023-03-19T17:51:58.645Z,16.32
2023-03-19T17:54:27.451Z,16.34
2023-03-19T17:56:56.362Z,16.33
2023-03-19T17:59:24.872Z,16.35
2023-03-19T18:01:54.019Z,16.38
2023-03-19T18:04:22.695Z,16.42
2023-03-19T18:06:55.752Z,16.45
2023-03-19T18:09:27.157Z,16.45
2023-03-19T18:11:56.357Z,16.46
2023-03-19T18:14:25.003Z,16.45
2023-03-19T18:16:53.765Z,16.46
2023-03-19T18:19:32.967Z,16.48
2023-03-19T18:22:01.902Z,16.47
2023-03-19T18:24:30.477Z,16.49
2023-03-19T18:26:59.240Z,16.49
2023-03-19T18:29:27.666Z,16.46
2023-03-19T18:31:56.441Z,16.44
2023-03-19T18:34:25.032Z,16.42
2023-03-19T18:36:53.897Z,16.40
2023-03-19T18:39:22.361Z,16.39
2023-03-19T18:41:51.308Z,16.37
2023-03-19T18:44:19.876Z,16.36
2023-03-19T18:46:48.693Z,16.35
2023-03-19T18:49:22.347Z,16.33
2023-03-19T18:52:02.017Z,16.34
2023-03-19T18:54:32.103Z,16.32
2023-03-19T18:57:01.322Z,16.31
2023-03-19T18:59:32.905Z,16.30
2023-03-19T19:02:19.782Z,16.31
2023-03-19T19:04:48.739Z,16.33
2023-03-19T19:07:17.795Z,16.31
2023-03-19T19:09:46.529Z,16.35
2023-03-19T19:12:18.278Z,16.34
2023-03-19T19:14:47.459Z,16.36
2023-03-19T19:17:19.497Z,16.35
2023-03-19T19:19:48.021Z,16.35
2023-03-19T19:22:17.857Z,16.35
2023-03-19T19:24:46.449Z,16.36
2023-03-19T19:27:23.146Z,16.34
2023-03-19T19:29:51.675Z,16.35
2023-03-19T19:32:26.463Z,16.35
2023-03-19T19:34:55.136Z,16.37
2023-03-19T19:37:24.212Z,16.35
2023-03-19T19:39:52.843Z,16.35
2023-03-19T19:42:22.475Z,16.36
2023-03-19T19:44:54.827Z,16.37
2023-03-19T19:47:23.676Z,16.36
2023-03-19T19:49:52.132Z,16.36
2023-03-19T19:52:20.995Z,16.38
2023-03-19T19:54:51.945Z,16.40
2023-03-19T19:57:26.989Z,16.42
2023-03-19T19:59:55.846Z,16.47
2023-03-19T20:02:31.278Z,16.47
2023-03-19T20:05:00.028Z,16.50
2023-03-19T20:07:29.169Z,16.50
2023-03-19T20:09:57.799Z,16.51
2023-03-19T20:12:32.293Z,16.50
2023-03-19T20:15:01.738Z,16.54
2023-03-19T20:17:30.955Z,16.54
2023-03-19T20:19:59.478Z,16.56
2023-03-19T20:22:28.294Z,16.57
2023-03-19T20:24:57.892Z,16.56
2023-03-19T20:27:31.212Z,16.57
2023-03-19T20:29:59.793Z,16.56
2023-03-19T20:32:38.033Z,16.57
2023-03-19T20:35:17.553Z,16.59
2023-03-19T20:37:47.286Z,16.61
2023-03-19T20:40:16.190Z,16.60
2023-03-19T20:42:50.598Z,16.59
2023-03-19T20:45:34.665Z,16.57
2023-03-19T20:48:04.448Z,16.58
2023-03-19T20:50:33.734Z,16.61
2023-03-19T20:53:04.039Z,16.61
2023-03-19T20:55:45.247Z,16.60
2023-03-19T20:58:28.980Z,16.55
2023-03-19T21:00:58.767Z,16.53
2023-03-19T21:03:31.858Z,16.54
2023-03-19T21:06:04.457Z,16.51
2023-03-19T21:08:41.294Z,16.50
2023-03-19T21:11:22.335Z,16.49
2023-03-19T21:13:53.473Z,16.50
2023-03-19T21:16:25.515Z,16.48
2023-03-19T21:18:54.625Z,16.47
2023-03-19T21:21:35.524Z,16.47
2023-03-19T21:24:14.478Z,16.47
2023-03-19T21:26:43.242Z,16.47
2023-03-19T21:29:28.775Z,16.48
2023-03-19T21:31:58.152Z,16.47
2023-03-19T21:34:28.781Z,16.48
2023-03-19T21:36:57.540Z,16.48
2023-03-19T21:39:26.520Z,16.48
2023-03-19T21:41:55.115Z,16.47
2023-03-19T21:44:24.856Z,16.46
2023-03-19T21:46:53.532Z,16.47
2023-03-19T21:49:22.936Z,16.48
2023-03-19T21:51:51.626Z,16.47
2023-03-19T21:54:20.683Z,16.47
2023-03-19T21:56:49.462Z,16.47
2023-03-19T21:59:31.979Z,16.45
2023-03-19T22:02:01.766Z,16.47
2023-03-19T22:04:31.237Z,16.46
2023-03-19T22:06:59.873Z,16.49
2023-03-19T22:09:29.264Z,16.46
2023-03-19T22:11:58.052Z,16.46
2023-03-19T22:14:27.192Z,16.44
2023-03-19T22:16:56.600Z,16.41
2023-03-19T22:19:26.116Z,16.41
2023-03-19T22:21:55.723Z,16.40
2023-03-19T22:24:24.731Z,16.41
2023-03-19T22:26:57.385Z,16.40
2023-03-19T22:29:26.523Z,16.39
2023-03-19T22:31:57.889Z,16.38
2023-03-19T22:34:28.222Z,16.38
2023-03-19T22:36:56.867Z,16.38
2023-03-19T22:39:26.034Z,16.38
2023-03-19T22:41:54.819Z,16.36
2023-03-19T22:44:29.841Z,16.37
2023-03-19T22:46:59.734Z,16.37
2023-03-19T22:49:30.122Z,16.36
2023-03-19T22:51:58.903Z,16.37
2023-03-19T22:54:27.910Z,16.36
2023-03-19T22:56:56.614Z,16.35
2023-03-19T22:59:25.708Z,16.36
2023-03-19T23:01:54.427Z,16.36
2023-03-19T23:04:29.850Z,16.34
2023-03-19T23:06:59.464Z,16.36
2023-03-19T23:09:33.901Z,16.36
2023-03-19T23:12:03.371Z,16.34
2023-03-19T23:14:32.480Z,16.36
2023-03-19T23:17:03.991Z,16.34
2023-03-19T23:19:35.603Z,16.34
2023-03-19T23:22:05.842Z,16.34
2023-03-19T23:24:34.944Z,16.33
2023-03-19T23:27:03.956Z,16.34
2023-03-19T23:29:36.870Z,16.33
2023-03-19T23:32:06.197Z,16.32
2023-03-19T23:34:42.451Z,16.32
2023-03-19T23:37:11.277Z,16.33
2023-03-19T23:39:40.238Z,16.31
2023-03-19T23:42:10.195Z,16.31
2023-03-19T23:44:39.097Z,16.31
2023-03-19T23:47:08.832Z,16.28
2023-03-19T23:49:38.062Z,16.30
2023-03-19T23:52:06.724Z,16.30
2023-03-19T23:54:39.547Z,16.28
2023-03-19T23:57:11.723Z,16.29
2023-03-19T23:59:42.593Z,16.29
